sensor_id;sensor_type;location;lat;lon;timestamp;pressure;altitude;pressure_sealevel;temperature;humidity
70323;BME280;57735;56.264;43.898;2023-07-13T00:01:17;99605.34;;;11.63;88.04
70323;BME280;57735;56.264;43.898;2023-07-13T00:03:48;99606.53;;;11.60;88.24
70323;BME280;57735;56.264;43.898;2023-07-13T00:06:19;99610.41;;;11.58;88.29
70323;BME280;57735;56.264;43.898;2023-07-13T00:08:51;99602.94;;;11.53;88.50
70323;BME280;57735;56.264;43.898;2023-07-13T00:11:21;99608.63;;;11.50;88.48
70323;BME280;57735;56.264;43.898;2023-07-13T00:13:53;99608.31;;;11.45;88.73
70323;BME280;57735;56.264;43.898;2023-07-13T00:16:23;99605.00;;;11.43;88.80
70323;BME280;57735;56.264;43.898;2023-07-13T00:18:54;99604.34;;;11.41;88.93
70323;BME280;57735;56.264;43.898;2023-07-13T00:21:25;99603.91;;;11.37;89.00
70323;BME280;57735;56.264;43.898;2023-07-13T00:23:56;99602.25;;;11.36;89.17
70323;BME280;57735;56.264;43.898;2023-07-13T00:26:27;99614.91;;;11.34;89.17
70323;BME280;57735;56.264;43.898;2023-07-13T00:28:58;99608.94;;;11.32;89.44
70323;BME280;57735;56.264;43.898;2023-07-13T00:31:30;99617.94;;;11.31;89.50
70323;BME280;57735;56.264;43.898;2023-07-13T00:34:06;99610.09;;;11.30;89.47
70323;BME280;57735;56.264;43.898;2023-07-13T00:36:37;99612.13;;;11.28;89.60
70323;BME280;57735;56.264;43.898;2023-07-13T00:39:08;99615.78;;;11.27;89.66
70323;BME280;57735;56.264;43.898;2023-07-13T00:41:39;99621.47;;;11.24;89.70
70323;BME280;57735;56.264;43.898;2023-07-13T00:44:14;99620.66;;;11.23;89.68
70323;BME280;57735;56.264;43.898;2023-07-13T00:46:48;99614.69;;;11.21;89.70
70323;BME280;57735;56.264;43.898;2023-07-13T00:49:21;99619.34;;;11.19;89.93
70323;BME280;57735;56.264;43.898;2023-07-13T00:52:03;99627.38;;;11.19;89.93
70323;BME280;57735;56.264;43.898;2023-07-13T00:54:43;99624.88;;;11.17;89.93
70323;BME280;57735;56.264;43.898;2023-07-13T00:57:20;99628.38;;;11.18;89.97
70323;BME280;57735;56.264;43.898;2023-07-13T00:59:54;99625.69;;;11.18;90.02
70323;BME280;57735;56.264;43.898;2023-07-13T01:02:28;99623.03;;;11.18;89.97
70323;BME280;57735;56.264;43.898;2023-07-13T01:04:59;99619.53;;;11.17;89.90
70323;BME280;57735;56.264;43.898;2023-07-13T01:07:30;99624.88;;;11.17;89.84
70323;BME280;57735;56.264;43.898;2023-07-13T01:10:03;99617.03;;;11.16;89.89
70323;BME280;57735;56.264;43.898;2023-07-13T01:12:34;99617.03;;;11.16;90.13
70323;BME280;57735;56.264;43.898;2023-07-13T01:15:32;99623.38;;;11.15;90.05
70323;BME280;57735;56.264;43.898;2023-07-13T01:17:56;99628.72;;;11.15;89.89
70323;BME280;57735;56.264;43.898;2023-07-13T01:20:27;99619.88;;;11.14;89.88
70323;BME280;57735;56.264;43.898;2023-07-13T01:22:58;99625.03;;;11.16;89.93
70323;BME280;57735;56.264;43.898;2023-07-13T01:25:30;99625.88;;;11.16;90.07
70323;BME280;57735;56.264;43.898;2023-07-13T01:28:08;99622.19;;;11.17;89.87
70323;BME280;57735;56.264;43.898;2023-07-13T01:30:45;99635.53;;;11.17;89.81
70323;BME280;57735;56.264;43.898;2023-07-13T01:33:17;99628.38;;;11.18;89.59
70323;BME280;57735;56.264;43.898;2023-07-13T01:35:48;99626.34;;;11.20;89.67
70323;BME280;57735;56.264;43.898;2023-07-13T01:38:22;99629.03;;;11.20;89.68
70323;BME280;57735;56.264;43.898;2023-07-13T01:40:55;99627.66;;;11.24;89.72
70323;BME280;57735;56.264;43.898;2023-07-13T01:43:26;99631.97;;;11.25;89.54
70323;BME280;57735;56.264;43.898;2023-07-13T01:45:57;99637.13;;;11.27;89.63
70323;BME280;57735;56.264;43.898;2023-07-13T01:48:28;99632.28;;;11.30;89.55
70323;BME280;57735;56.264;43.898;2023-07-13T01:50:59;99629.28;;;11.33;89.40
70323;BME280;57735;56.264;43.898;2023-07-13T01:53:32;99633.25;;;11.37;89.30
70323;BME280;57735;56.264;43.898;2023-07-13T01:56:03;99630.19;;;11.40;89.29
70323;BME280;57735;56.264;43.898;2023-07-13T01:58:34;99642.38;;;11.43;89.02
70323;BME280;57735;56.264;43.898;2023-07-13T02:01:05;99639.34;;;11.46;88.76
70323;BME280;57735;56.264;43.898;2023-07-13T02:03:36;99629.16;;;11.49;88.60
70323;BME280;57735;56.264;43.898;2023-07-13T02:06:07;99621.47;;;11.54;88.63
70323;BME280;57735;56.264;43.898;2023-07-13T02:08:37;99625.41;;;11.59;88.50
70323;BME280;57735;56.264;43.898;2023-07-13T02:11:08;99616.88;;;11.63;88.44
70323;BME280;57735;56.264;43.898;2023-07-13T02:13:39;99621.84;;;11.66;88.02
70323;BME280;57735;56.264;43.898;2023-07-13T02:16:10;99608.16;;;11.69;87.92
70323;BME280;57735;56.264;43.898;2023-07-13T02:18:41;99605.75;;;11.74;87.87
70323;BME280;57735;56.264;43.898;2023-07-13T02:21:12;99601.75;;;11.78;87.45
70323;BME280;57735;56.264;43.898;2023-07-13T02:23:42;99598.56;;;11.83;87.15
70323;BME280;57735;56.264;43.898;2023-07-13T02:26:16;99605.84;;;11.89;87.11
70323;BME280;57735;56.264;43.898;2023-07-13T02:28:47;99604.44;;;11.93;86.84
70323;BME280;57735;56.264;43.898;2023-07-13T02:31:18;99598.94;;;11.95;86.52
70323;BME280;57735;56.264;43.898;2023-07-13T02:33:49;99603.09;;;11.97;86.25
70323;BME280;57735;56.264;43.898;2023-07-13T02:36:20;99601.72;;;12.01;86.09
70323;BME280;57735;56.264;43.898;2023-07-13T02:38:53;99609.19;;;12.06;85.98
70323;BME280;57735;56.264;43.898;2023-07-13T02:41:24;99603.28;;;12.10;85.88
70323;BME280;57735;56.264;43.898;2023-07-13T02:43:58;99609.75;;;12.16;85.77
70323;BME280;57735;56.264;43.898;2023-07-13T02:46:36;99607.19;;;12.22;85.55
70323;BME280;57735;56.264;43.898;2023-07-13T02:49:09;99614.28;;;12.30;84.91
70323;BME280;57735;56.264;43.898;2023-07-13T02:51:40;99603.69;;;12.37;84.73
70323;BME280;57735;56.264;43.898;2023-07-13T02:54:14;99605.78;;;12.41;84.57
70323;BME280;57735;56.264;43.898;2023-07-13T02:56:45;99606.44;;;12.43;84.42
70323;BME280;57735;56.264;43.898;2023-07-13T02:59:16;99610.50;;;12.54;84.56
70323;BME280;57735;56.264;43.898;2023-07-13T03:01:47;99613.72;;;12.64;84.05
70323;BME280;57735;56.264;43.898;2023-07-13T03:04:18;99609.94;;;12.73;83.68
70323;BME280;57735;56.264;43.898;2023-07-13T03:06:50;99602.25;;;12.85;83.50
70323;BME280;57735;56.264;43.898;2023-07-13T03:09:24;99611.00;;;12.93;82.69
70323;BME280;57735;56.264;43.898;2023-07-13T03:11:55;99613.47;;;12.95;82.01
70323;BME280;57735;56.264;43.898;2023-07-13T03:14:26;99620.97;;;13.00;81.83
70323;BME280;57735;56.264;43.898;2023-07-13T03:16:57;99620.59;;;13.03;81.40
70323;BME280;57735;56.264;43.898;2023-07-13T03:19:28;99616.91;;;13.04;81.33
70323;BME280;57735;56.264;43.898;2023-07-13T03:21:59;99609.13;;;13.09;81.38
70323;BME280;57735;56.264;43.898;2023-07-13T03:24:30;99622.75;;;13.14;81.42
70323;BME280;57735;56.264;43.898;2023-07-13T03:27:04;99624.53;;;13.21;81.40
70323;BME280;57735;56.264;43.898;2023-07-13T03:29:36;99613.69;;;13.30;80.91
70323;BME280;57735;56.264;43.898;2023-07-13T03:32:09;99622.00;;;13.35;80.33
70323;BME280;57735;56.264;43.898;2023-07-13T03:34:40;99623.47;;;13.37;80.15
70323;BME280;57735;56.264;43.898;2023-07-13T03:37:11;99622.84;;;13.35;79.92
70323;BME280;57735;56.264;43.898;2023-07-13T03:39:42;99615.75;;;13.49;79.91
70323;BME280;57735;56.264;43.898;2023-07-13T03:42:13;99624.75;;;13.62;79.63
70323;BME280;57735;56.264;43.898;2023-07-13T03:44:44;99623.78;;;13.70;79.05
70323;BME280;57735;56.264;43.898;2023-07-13T03:47:21;99618.88;;;13.74;78.78
70323;BME280;57735;56.264;43.898;2023-07-13T03:49:52;99619.94;;;13.79;78.63
70323;BME280;57735;56.264;43.898;2023-07-13T03:52:23;99612.34;;;13.83;78.32
70323;BME280;57735;56.264;43.898;2023-07-13T03:54:54;99619.19;;;13.85;77.54
70323;BME280;57735;56.264;43.898;2023-07-13T03:57:28;99623.56;;;13.93;77.82
70323;BME280;57735;56.264;43.898;2023-07-13T03:59:59;99624.91;;;14.04;77.08
70323;BME280;57735;56.264;43.898;2023-07-13T04:02:29;99623.44;;;14.01;76.40
70323;BME280;57735;56.264;43.898;2023-07-13T04:05:00;99616.66;;;14.05;76.03
70323;BME280;57735;56.264;43.898;2023-07-13T04:07:37;99630.00;;;13.98;75.53
70323;BME280;57735;56.264;43.898;2023-07-13T04:10:11;99618.06;;;14.01;76.37
70323;BME280;57735;56.264;43.898;2023-07-13T04:12:42;99625.13;;;14.09;76.56
70323;BME280;57735;56.264;43.898;2023-07-13T04:15:13;99618.41;;;14.19;76.39
70323;BME280;57735;56.264;43.898;2023-07-13T04:17:44;99613.91;;;14.26;75.63
70323;BME280;57735;56.264;43.898;2023-07-13T04:20:17;99613.09;;;14.26;75.38
70323;BME280;57735;56.264;43.898;2023-07-13T04:22:52;99610.91;;;14.36;75.71
70323;BME280;57735;56.264;43.898;2023-07-13T04:25:24;99608.53;;;14.48;74.61
70323;BME280;57735;56.264;43.898;2023-07-13T04:27:54;99617.91;;;14.65;74.34
70323;BME280;57735;56.264;43.898;2023-07-13T04:30:25;99615.59;;;14.62;73.67
70323;BME280;57735;56.264;43.898;2023-07-13T04:32:56;99623.84;;;14.54;74.51
70323;BME280;57735;56.264;43.898;2023-07-13T04:35:27;99623.84;;;14.60;73.62
70323;BME280;57735;56.264;43.898;2023-07-13T04:38:01;99630.72;;;14.70;72.83
70323;BME280;57735;56.264;43.898;2023-07-13T04:40:36;99631.34;;;14.72;73.22
70323;BME280;57735;56.264;43.898;2023-07-13T04:43:07;99627.41;;;14.68;73.34
70323;BME280;57735;56.264;43.898;2023-07-13T04:45:38;99626.53;;;14.60;72.77
70323;BME280;57735;56.264;43.898;2023-07-13T04:48:12;99626.28;;;14.49;72.96
70323;BME280;57735;56.264;43.898;2023-07-13T04:50:43;99626.13;;;14.57;72.88
70323;BME280;57735;56.264;43.898;2023-07-13T04:53:19;99615.47;;;14.77;72.80
70323;BME280;57735;56.264;43.898;2023-07-13T04:55:52;99615.13;;;14.93;72.41
70323;BME280;57735;56.264;43.898;2023-07-13T04:58:23;99622.88;;;15.16;72.46
70323;BME280;57735;56.264;43.898;2023-07-13T05:01:00;99619.22;;;15.43;72.07
70323;BME280;57735;56.264;43.898;2023-07-13T05:03:32;99629.38;;;15.54;70.31
70323;BME280;57735;56.264;43.898;2023-07-13T05:06:06;99627.91;;;15.52;70.21
70323;BME280;57735;56.264;43.898;2023-07-13T05:08:37;99623.34;;;15.46;68.97
70323;BME280;57735;56.264;43.898;2023-07-13T05:11:08;99635.41;;;15.56;69.05
70323;BME280;57735;56.264;43.898;2023-07-13T05:13:39;99623.41;;;15.59;69.08
70323;BME280;57735;56.264;43.898;2023-07-13T05:16:10;99626.13;;;15.85;68.64
70323;BME280;57735;56.264;43.898;2023-07-13T05:18:40;99618.66;;;15.94;67.87
70323;BME280;57735;56.264;43.898;2023-07-13T05:21:11;99612.06;;;15.90;67.39
70323;BME280;57735;56.264;43.898;2023-07-13T05:23:42;99621.56;;;15.92;67.80
70323;BME280;57735;56.264;43.898;2023-07-13T05:26:13;99618.28;;;16.03;68.08
70323;BME280;57735;56.264;43.898;2023-07-13T05:28:44;99622.81;;;16.16;66.83
70323;BME280;57735;56.264;43.898;2023-07-13T05:31:15;99623.63;;;16.23;67.20
70323;BME280;57735;56.264;43.898;2023-07-13T05:33:45;99617.81;;;16.39;66.43
70323;BME280;57735;56.264;43.898;2023-07-13T05:36:16;99610.53;;;16.66;66.19
70323;BME280;57735;56.264;43.898;2023-07-13T05:38:47;99607.34;;;16.89;64.36
70323;BME280;57735;56.264;43.898;2023-07-13T05:41:18;99617.84;;;17.04;64.23
70323;BME280;57735;56.264;43.898;2023-07-13T05:43:52;99613.09;;;16.99;62.43
70323;BME280;57735;56.264;43.898;2023-07-13T05:46:22;99611.44;;;17.05;63.31
70323;BME280;57735;56.264;43.898;2023-07-13T05:48:53;99613.53;;;16.96;62.79
70323;BME280;57735;56.264;43.898;2023-07-13T05:51:24;99608.53;;;17.06;63.51
70323;BME280;57735;56.264;43.898;2023-07-13T05:53:55;99607.00;;;17.17;63.51
70323;BME280;57735;56.264;43.898;2023-07-13T05:56:26;99610.75;;;17.16;62.68
70323;BME280;57735;56.264;43.898;2023-07-13T05:59:00;99619.03;;;17.15;63.00
70323;BME280;57735;56.264;43.898;2023-07-13T06:01:31;99611.16;;;17.20;62.00
70323;BME280;57735;56.264;43.898;2023-07-13T06:04:02;99610.84;;;17.34;62.21
70323;BME280;57735;56.264;43.898;2023-07-13T06:06:34;99602.47;;;17.49;61.43
70323;BME280;57735;56.264;43.898;2023-07-13T06:09:04;99598.38;;;17.40;61.12
70323;BME280;57735;56.264;43.898;2023-07-13T06:11:35;99596.38;;;17.29;61.31
70323;BME280;57735;56.264;43.898;2023-07-13T06:14:09;99593.84;;;17.34;62.20
70323;BME280;57735;56.264;43.898;2023-07-13T06:16:40;99584.41;;;17.56;61.22
70323;BME280;57735;56.264;43.898;2023-07-13T06:19:11;99585.16;;;17.70;60.87
70323;BME280;57735;56.264;43.898;2023-07-13T06:21:45;99598.41;;;17.71;61.27
70323;BME280;57735;56.264;43.898;2023-07-13T06:24:16;99580.25;;;17.54;60.96
70323;BME280;57735;56.264;43.898;2023-07-13T06:26:49;99594.91;;;17.33;61.31
70323;BME280;57735;56.264;43.898;2023-07-13T06:29:27;99595.22;;;17.12;61.24
70323;BME280;57735;56.264;43.898;2023-07-13T06:31:58;99593.00;;;17.02;61.89
70323;BME280;57735;56.264;43.898;2023-07-13T06:34:32;99588.38;;;17.16;61.95
70323;BME280;57735;56.264;43.898;2023-07-13T06:37:02;99592.78;;;17.41;61.30
70323;BME280;57735;56.264;43.898;2023-07-13T06:39:33;99590.75;;;17.62;60.85
70323;BME280;57735;56.264;43.898;2023-07-13T06:42:05;99592.59;;;17.74;59.60
70323;BME280;57735;56.264;43.898;2023-07-13T06:44:36;99591.22;;;17.90;60.13
70323;BME280;57735;56.264;43.898;2023-07-13T06:47:07;99589.47;;;17.96;59.96
70323;BME280;57735;56.264;43.898;2023-07-13T06:49:38;99591.44;;;17.89;59.43
70323;BME280;57735;56.264;43.898;2023-07-13T06:52:09;99590.22;;;17.85;59.66
70323;BME280;57735;56.264;43.898;2023-07-13T06:54:40;99592.13;;;17.77;59.63
70323;BME280;57735;56.264;43.898;2023-07-13T06:57:10;99596.78;;;17.64;59.64
70323;BME280;57735;56.264;43.898;2023-07-13T06:59:41;99597.06;;;17.49;59.49
70323;BME280;57735;56.264;43.898;2023-07-13T07:02:12;99598.38;;;17.40;59.46
70323;BME280;57735;56.264;43.898;2023-07-13T07:04:43;99606.72;;;17.32;59.79
70323;BME280;57735;56.264;43.898;2023-07-13T07:07:14;99607.59;;;17.26;60.86
70323;BME280;57735;56.264;43.898;2023-07-13T07:09:45;99617.53;;;17.25;61.00
70323;BME280;57735;56.264;43.898;2023-07-13T07:12:15;99602.84;;;17.21;60.60
70323;BME280;57735;56.264;43.898;2023-07-13T07:14:46;99618.41;;;17.19;60.55
70323;BME280;57735;56.264;43.898;2023-07-13T07:17:17;99614.19;;;16.92;60.73
70323;BME280;57735;56.264;43.898;2023-07-13T07:19:48;99614.66;;;16.69;61.81
70323;BME280;57735;56.264;43.898;2023-07-13T07:22:21;99607.81;;;16.60;62.48
70323;BME280;57735;56.264;43.898;2023-07-13T07:24:55;99617.97;;;16.71;61.90
70323;BME280;57735;56.264;43.898;2023-07-13T07:27:27;99620.25;;;16.74;61.82
70323;BME280;57735;56.264;43.898;2023-07-13T07:29:58;99623.31;;;16.78;61.51
70323;BME280;57735;56.264;43.898;2023-07-13T07:32:31;99626.81;;;16.91;61.13
70323;BME280;57735;56.264;43.898;2023-07-13T07:35:04;99625.09;;;17.03;61.72
70323;BME280;57735;56.264;43.898;2023-07-13T07:37:35;99625.16;;;17.28;61.60
70323;BME280;57735;56.264;43.898;2023-07-13T07:40:12;99627.97;;;17.47;60.52
70323;BME280;57735;56.264;43.898;2023-07-13T07:42:42;99627.16;;;17.46;60.02
70323;BME280;57735;56.264;43.898;2023-07-13T07:45:13;99632.53;;;17.46;60.22
70323;BME280;57735;56.264;43.898;2023-07-13T07:47:45;99627.75;;;17.48;60.28
70323;BME280;57735;56.264;43.898;2023-07-13T07:50:16;99633.97;;;17.49;59.50
70323;BME280;57735;56.264;43.898;2023-07-13T07:52:46;99635.84;;;17.48;59.02
70323;BME280;57735;56.264;43.898;2023-07-13T07:55:17;99649.06;;;17.56;58.73
70323;BME280;57735;56.264;43.898;2023-07-13T07:57:49;99635.63;;;17.50;59.48
70323;BME280;57735;56.264;43.898;2023-07-13T08:00:20;99639.75;;;17.52;59.59
70323;BME280;57735;56.264;43.898;2023-07-13T08:02:52;99642.47;;;17.45;60.01
70323;BME280;57735;56.264;43.898;2023-07-13T08:05:25;99642.69;;;17.44;60.55
70323;BME280;57735;56.264;43.898;2023-07-13T08:07:56;99648.53;;;17.41;60.92
70323;BME280;57735;56.264;43.898;2023-07-13T08:10:27;99642.13;;;17.35;61.76
70323;BME280;57735;56.264;43.898;2023-07-13T08:12:58;99644.53;;;17.12;60.47
70323;BME280;57735;56.264;43.898;2023-07-13T08:15:29;99647.53;;;16.84;61.23
70323;BME280;57735;56.264;43.898;2023-07-13T08:18:02;99648.63;;;16.57;61.58
70323;BME280;57735;56.264;43.898;2023-07-13T08:20:36;99646.34;;;16.47;62.59
70323;BME280;57735;56.264;43.898;2023-07-13T08:23:09;99650.72;;;16.42;63.30
70323;BME280;57735;56.264;43.898;2023-07-13T08:25:40;99646.75;;;16.51;63.63
70323;BME280;57735;56.264;43.898;2023-07-13T08:28:21;99644.69;;;16.66;63.89
70323;BME280;57735;56.264;43.898;2023-07-13T08:30:54;99637.59;;;16.91;63.48
70323;BME280;57735;56.264;43.898;2023-07-13T08:33:24;99637.94;;;17.08;63.23
70323;BME280;57735;56.264;43.898;2023-07-13T08:35:56;99644.44;;;17.32;63.06
70323;BME280;57735;56.264;43.898;2023-07-13T08:38:27;99640.59;;;17.53;61.66
70323;BME280;57735;56.264;43.898;2023-07-13T08:40:58;99646.53;;;17.68;62.14
70323;BME280;57735;56.264;43.898;2023-07-13T08:43:34;99642.78;;;17.62;61.65
70323;BME280;57735;56.264;43.898;2023-07-13T08:46:12;99644.81;;;17.42;62.00
70323;BME280;57735;56.264;43.898;2023-07-13T08:48:50;99649.88;;;17.19;61.81
70323;BME280;57735;56.264;43.898;2023-07-13T08:54:21;99639.66;;;16.83;63.30
70323;BME280;57735;56.264;43.898;2023-07-13T08:56:53;99641.34;;;16.77;63.42
70323;BME280;57735;56.264;43.898;2023-07-13T08:59:27;99643.44;;;16.75;63.50
70323;BME280;57735;56.264;43.898;2023-07-13T09:05:15;99646.09;;;16.62;64.53
70323;BME280;57735;56.264;43.898;2023-07-13T09:11:07;99643.88;;;16.26;64.88
70323;BME280;57735;56.264;43.898;2023-07-13T09:13:49;99652.16;;;16.11;66.30
70323;BME280;57735;56.264;43.898;2023-07-13T09:16:22;99660.44;;;15.96;66.64
70323;BME280;57735;56.264;43.898;2023-07-13T09:19:00;99663.13;;;15.83;66.90
70323;BME280;57735;56.264;43.898;2023-07-13T09:21:37;99664.38;;;15.74;67.79
70323;BME280;57735;56.264;43.898;2023-07-13T09:24:41;99650.50;;;15.57;68.69
70323;BME280;57735;56.264;43.898;2023-07-13T09:27:22;99656.63;;;15.51;69.27
70323;BME280;57735;56.264;43.898;2023-07-13T09:30:11;99662.41;;;15.48;70.01
70323;BME280;57735;56.264;43.898;2023-07-13T09:32:51;99656.63;;;15.51;70.12
70323;BME280;57735;56.264;43.898;2023-07-13T09:35:25;99663.31;;;15.68;70.56
70323;BME280;57735;56.264;43.898;2023-07-13T09:38:18;99657.97;;;16.01;69.63
70323;BME280;57735;56.264;43.898;2023-07-13T09:43:29;99655.00;;;16.82;68.35
70323;BME280;57735;56.264;43.898;2023-07-13T09:46:00;99659.66;;;17.13;66.05
70323;BME280;57735;56.264;43.898;2023-07-13T09:48:36;99660.59;;;17.32;65.91
70323;BME280;57735;56.264;43.898;2023-07-13T09:51:13;99666.19;;;17.37;64.82
70323;BME280;57735;56.264;43.898;2023-07-13T09:53:47;99655.25;;;17.25;64.49
70323;BME280;57735;56.264;43.898;2023-07-13T09:56:37;99663.22;;;17.07;65.30
70323;BME280;57735;56.264;43.898;2023-07-13T09:59:19;99652.50;;;16.87;66.13
70323;BME280;57735;56.264;43.898;2023-07-13T10:01:51;99666.44;;;16.71;66.75
70323;BME280;57735;56.264;43.898;2023-07-13T10:04:32;99664.78;;;16.50;66.91
70323;BME280;57735;56.264;43.898;2023-07-13T10:07:08;99668.31;;;16.37;67.57
70323;BME280;57735;56.264;43.898;2023-07-13T10:09:40;99657.16;;;16.21;66.83
70323;BME280;57735;56.264;43.898;2023-07-13T10:12:14;99661.28;;;16.03;66.63
70323;BME280;57735;56.264;43.898;2023-07-13T10:14:46;99671.63;;;16.00;67.06
70323;BME280;57735;56.264;43.898;2023-07-13T10:17:18;99672.66;;;16.12;67.32
70323;BME280;57735;56.264;43.898;2023-07-13T10:19:50;99666.44;;;16.38;67.33
70323;BME280;57735;56.264;43.898;2023-07-13T10:22:27;99671.16;;;16.82;66.43
70323;BME280;57735;56.264;43.898;2023-07-13T10:25:19;99668.53;;;17.20;65.09
70323;BME280;57735;56.264;43.898;2023-07-13T10:27:56;99668.44;;;17.40;63.98
70323;BME280;57735;56.264;43.898;2023-07-13T10:30:34;99664.81;;;17.59;62.65
70323;BME280;57735;56.264;43.898;2023-07-13T10:33:10;99664.16;;;17.70;61.70
70323;BME280;57735;56.264;43.898;2023-07-13T10:35:43;99671.19;;;17.71;60.93
70323;BME280;57735;56.264;43.898;2023-07-13T10:38:22;99668.72;;;17.63;61.22
70323;BME280;57735;56.264;43.898;2023-07-13T10:41:01;99663.16;;;17.58;61.30
70323;BME280;57735;56.264;43.898;2023-07-13T10:43:37;99678.13;;;17.48;60.73
70323;BME280;57735;56.264;43.898;2023-07-13T10:46:12;99670.75;;;17.36;60.67
70323;BME280;57735;56.264;43.898;2023-07-13T10:48:55;99667.22;;;17.29;61.20
70323;BME280;57735;56.264;43.898;2023-07-13T10:51:30;99678.47;;;17.20;61.07
70323;BME280;57735;56.264;43.898;2023-07-13T10:54:26;99684.75;;;17.07;61.32
70323;BME280;57735;56.264;43.898;2023-07-13T10:59:46;99672.31;;;17.06;62.50
70323;BME280;57735;56.264;43.898;2023-07-13T11:02:26;99678.09;;;17.09;62.22
70323;BME280;57735;56.264;43.898;2023-07-13T11:04:58;99680.78;;;17.16;61.88
70323;BME280;57735;56.264;43.898;2023-07-13T11:07:52;99678.06;;;17.23;62.08
70323;BME280;57735;56.264;43.898;2023-07-13T11:10:49;99678.41;;;17.39;61.60
70323;BME280;57735;56.264;43.898;2023-07-13T11:13:55;99684.75;;;17.52;60.81
70323;BME280;57735;56.264;43.898;2023-07-13T11:16:36;99679.50;;;17.70;60.52
70323;BME280;57735;56.264;43.898;2023-07-13T11:22:02;99667.38;;;17.86;59.50
70323;BME280;57735;56.264;43.898;2023-07-13T11:24:59;99670.84;;;17.93;60.34
70323;BME280;57735;56.264;43.898;2023-07-13T11:27:51;99676.13;;;18.06;59.46
70323;BME280;57735;56.264;43.898;2023-07-13T11:36:07;99683.34;;;17.81;59.04
70323;BME280;57735;56.264;43.898;2023-07-13T11:38:45;99681.56;;;17.61;58.57
70323;BME280;57735;56.264;43.898;2023-07-13T11:41:19;99682.56;;;17.35;59.36
70323;BME280;57735;56.264;43.898;2023-07-13T11:43:55;99685.97;;;17.11;60.12
70323;BME280;57735;56.264;43.898;2023-07-13T11:46:27;99691.81;;;16.95;59.81
70323;BME280;57735;56.264;43.898;2023-07-13T11:48:58;99682.91;;;17.01;60.73
70323;BME280;57735;56.264;43.898;2023-07-13T11:51:35;99684.56;;;17.02;60.13
70323;BME280;57735;56.264;43.898;2023-07-13T11:54:22;99683.56;;;16.90;60.68
70323;BME280;57735;56.264;43.898;2023-07-13T11:56:56;99689.56;;;16.79;61.13
70323;BME280;57735;56.264;43.898;2023-07-13T11:59:29;99695.59;;;16.61;61.71
70323;BME280;57735;56.264;43.898;2023-07-13T12:02:00;99688.16;;;16.43;62.28
70323;BME280;57735;56.264;43.898;2023-07-13T12:04:34;99695.22;;;16.24;63.04
70323;BME280;57735;56.264;43.898;2023-07-13T12:07:11;99691.28;;;16.14;63.31
70323;BME280;57735;56.264;43.898;2023-07-13T12:09:47;99692.13;;;16.08;63.87
70323;BME280;57735;56.264;43.898;2023-07-13T12:12:28;99690.66;;;16.05;63.95
70323;BME280;57735;56.264;43.898;2023-07-13T12:15:05;99698.09;;;16.03;63.62
70323;BME280;57735;56.264;43.898;2023-07-13T12:17:36;99693.13;;;16.00;63.49
70323;BME280;57735;56.264;43.898;2023-07-13T12:20:20;99691.06;;;16.02;63.49
70323;BME280;57735;56.264;43.898;2023-07-13T12:22:53;99686.31;;;16.11;63.74
70323;BME280;57735;56.264;43.898;2023-07-13T12:25:24;99685.91;;;16.20;62.39
70323;BME280;57735;56.264;43.898;2023-07-13T12:27:55;99689.59;;;16.26;61.86
70323;BME280;57735;56.264;43.898;2023-07-13T12:30:31;99696.22;;;16.30;61.67
70323;BME280;57735;56.264;43.898;2023-07-13T12:33:08;99685.69;;;16.42;61.84
70323;BME280;57735;56.264;43.898;2023-07-13T12:35:46;99682.16;;;16.54;61.85
70323;BME280;57735;56.264;43.898;2023-07-13T12:38:18;99670.78;;;16.65;60.75
70323;BME280;57735;56.264;43.898;2023-07-13T12:40:57;99677.78;;;16.80;59.82
70323;BME280;57735;56.264;43.898;2023-07-13T12:43:34;99684.31;;;17.10;58.91
70323;BME280;57735;56.264;43.898;2023-07-13T12:46:23;99682.03;;;18.71;55.46
70323;BME280;57735;56.264;43.898;2023-07-13T12:48:54;99679.59;;;18.63;55.82
70323;BME280;57735;56.264;43.898;2023-07-13T12:51:26;99677.72;;;18.38;55.66
70323;BME280;57735;56.264;43.898;2023-07-13T12:54:08;99680.63;;;18.12;55.99
70323;BME280;57735;56.264;43.898;2023-07-13T12:56:43;99678.75;;;17.88;56.58
70323;BME280;57735;56.264;43.898;2023-07-13T12:59:18;99687.78;;;17.75;57.54
70323;BME280;57735;56.264;43.898;2023-07-13T13:01:49;99683.28;;;17.56;58.29
70323;BME280;57735;56.264;43.898;2023-07-13T13:04:21;99681.94;;;17.33;58.75
70323;BME280;57735;56.264;43.898;2023-07-13T13:07:03;99683.25;;;17.11;59.18
70323;BME280;57735;56.264;43.898;2023-07-13T13:09:34;99675.69;;;16.88;59.79
70323;BME280;57735;56.264;43.898;2023-07-13T13:12:05;99686.31;;;16.70;61.55
70323;BME280;57735;56.264;43.898;2023-07-13T13:14:37;99686.72;;;16.54;61.59
70323;BME280;57735;56.264;43.898;2023-07-13T13:17:19;99686.53;;;16.35;63.05
70323;BME280;57735;56.264;43.898;2023-07-13T13:19:51;99699.34;;;16.07;65.07
70323;BME280;57735;56.264;43.898;2023-07-13T13:22:26;99695.16;;;15.72;66.54
70323;BME280;57735;56.264;43.898;2023-07-13T13:24:59;99697.09;;;15.43;67.92
70323;BME280;57735;56.264;43.898;2023-07-13T13:27:30;99693.53;;;15.23;69.06
70323;BME280;57735;56.264;43.898;2023-07-13T13:30:02;99697.59;;;15.12;69.84
70323;BME280;57735;56.264;43.898;2023-07-13T13:32:34;99690.75;;;15.03;70.66
70323;BME280;57735;56.264;43.898;2023-07-13T13:35:08;99701.88;;;15.00;70.83
70323;BME280;57735;56.264;43.898;2023-07-13T13:37:46;99702.25;;;14.90;71.41
70323;BME280;57735;56.264;43.898;2023-07-13T13:40:20;99696.91;;;14.90;71.77
70323;BME280;57735;56.264;43.898;2023-07-13T13:42:51;99697.09;;;14.95;71.92
70323;BME280;57735;56.264;43.898;2023-07-13T13:45:25;99692.56;;;14.96;72.24
70323;BME280;57735;56.264;43.898;2023-07-13T13:47:56;99694.47;;;15.02;72.47